North Central West Virginia Airport
KCKB : now visible

Airfield :











YOU CAN JOIN US ON...

 
LOGIN :

Register | Disclaimer

   EN    FR    IT 

 









Legend :    VFR   Marginal VFR   IFR   Intensive IFR   Very Intensive IFR
Visi :
Ceiling :
>= 8 km
>= 3000ft
5 to 8 km
1000 to 3000 ft
1500m to 5 km
500 to 1000 ft
800 to 1500m
200 to 500 ft
< 800m
< 200 ft
Symbols :   Thunderstorms  Fog  Heavy snow  Heavy precipitations  Wind > 20 kt






- Airport Elevation : 1217 ft
- IATA code : CKB


KCKB - North Central West Virginia

CURRENT METAR :
  • 281021Z 30007KT 9SM BKN011 OVC019 08/04 A2979 RMK AO2 RAE0957 P0000 T00780044 $

EXPIRED METARs :
  • 281006Z 31009KT 6SM HZ SCT007 BKN017 OVC028 08/04 A2978 RMK AO2 RAE0957 P0000 T00780044 $
  • 280953Z 30010G17KT 5SM -RA SCT007 BKN012 OVC029 08/04 A2977 RMK AO2 SLP075 P0001 T00780044 $
  • 280946Z 30009G17KT 4SM -RA BKN009 BKN014 OVC024 08/05 A2977 RMK AO2 P0001 T00780050 $
  • 280853Z VRB06G15KT 10SM -RA OVC011 09/06 A2974 RMK AO2 RAE07B23 SLP063 P0001 60002 T00890056 53023 $
  • 280753Z 28012KT 7SM -RA OVC012 10/06 A2971 RMK AO2 SLP050 P0001 T01000061 $

TAF KCKB
Valid from the 28 at 09:00 until the 29 at 06:00 UTC


280849Z 2809/2906 28011KT P6SM -RA SCT006 OVC012
FM281000 29005KT P6SM SCT006 OVC015
FM281400 27005KT P6SM OVC015
FM282300 VRB03KT P6SM BKN020
FM290200 00000KT P6SM SCT020 OVC050
KZOB FIR / North America



MET'MAP, your aeronautical weather chart ! - Copyright ORBIFLY December 2007 - Disclaimer

ORBIFLY MET'MAP TEAM :

Programming & Development : Alexandra Zaïnal
Original concept : Baudouin d'Aumeries
Technical & hardware support : Manuel Goepfert
Assistance : Marc-Olivier Méhu




SOURCES & CREDITS :

   NOAA       Earth
Advisory